createdAt,value
2022-08-30T00:00:44.144Z,48.30
2022-08-30T00:02:45.874Z,48.10
2022-08-30T00:04:48.221Z,48.30
2022-08-30T00:06:49.876Z,49.00
2022-08-30T00:08:51.995Z,48.40
2022-08-30T00:10:53.965Z,48.30
2022-08-30T00:12:56.901Z,48.30
2022-08-30T00:14:58.676Z,48.40
2022-08-30T00:17:00.387Z,48.50
2022-08-30T00:19:02.299Z,48.40
2022-08-30T00:21:04.296Z,48.60
2022-08-30T00:23:06.147Z,48.50
2022-08-30T00:25:08.787Z,48.60
2022-08-30T00:27:10.479Z,48.60
2022-08-30T00:29:12.141Z,48.60
2022-08-30T00:31:15.398Z,48.70
2022-08-30T00:33:17.801Z,48.60
2022-08-30T00:35:22.290Z,48.80
2022-08-30T00:37:24.209Z,48.90
2022-08-30T00:39:26.158Z,48.80
2022-08-30T00:41:30.889Z,48.80
2022-08-30T00:43:34.806Z,48.90
2022-08-30T00:45:39.233Z,48.80
2022-08-30T00:47:40.901Z,48.90
2022-08-30T00:49:44.012Z,49.00
2022-08-30T00:51:46.458Z,49.00
2022-08-30T00:53:50.203Z,49.20
2022-08-30T00:55:52.639Z,49.30
2022-08-30T00:57:59.039Z,49.30
2022-08-30T01:00:04.696Z,49.30
2022-08-30T01:02:06.925Z,49.40
2022-08-30T01:04:09.245Z,49.50
2022-08-30T01:06:11.261Z,49.60
2022-08-30T01:08:12.925Z,49.50
2022-08-30T01:10:15.034Z,49.70
2022-08-30T01:12:17.380Z,49.80
2022-08-30T01:14:22.044Z,49.80
2022-08-30T01:16:27.748Z,49.90
2022-08-30T01:18:31.854Z,49.90
2022-08-30T01:20:38.225Z,49.90
2022-08-30T01:22:48.882Z,50.00
2022-08-30T01:24:51.253Z,50.00
2022-08-30T01:26:53.011Z,50.10
2022-08-30T01:28:56.979Z,50.10
2022-08-30T01:30:58.697Z,50.10
2022-08-30T01:33:02.475Z,50.00
2022-08-30T01:35:04.212Z,50.10
2022-08-30T01:37:05.905Z,50.10
2022-08-30T01:39:08.529Z,50.20
2022-08-30T01:41:10.205Z,50.30
2022-08-30T01:43:13.810Z,50.30
2022-08-30T01:45:15.763Z,50.30
2022-08-30T01:47:18.591Z,50.40
2022-08-30T01:49:26.951Z,50.50
2022-08-30T01:51:32.620Z,50.50
2022-08-30T01:53:34.408Z,50.50
2022-08-30T01:55:37.517Z,50.50
2022-08-30T01:57:39.174Z,50.50
2022-08-30T01:59:42.800Z,50.40
2022-08-30T02:01:44.563Z,50.40
2022-08-30T02:03:46.981Z,50.40
2022-08-30T02:05:49.124Z,50.50
2022-08-30T02:07:50.846Z,50.40
2022-08-30T02:09:52.942Z,50.50
2022-08-30T02:11:54.590Z,50.50
2022-08-30T02:13:56.319Z,50.50
2022-08-30T02:15:58.414Z,50.50
2022-08-30T02:18:01.233Z,50.60
2022-08-30T02:20:04.109Z,50.80
2022-08-30T02:22:06.514Z,50.70
2022-08-30T02:24:08.147Z,50.60
2022-08-30T02:26:10.429Z,50.70
2022-08-30T02:28:14.917Z,50.70
2022-08-30T02:30:16.793Z,50.80
2022-08-30T02:32:18.814Z,50.80
2022-08-30T02:34:20.686Z,51.00
2022-08-30T02:36:23.037Z,50.90
2022-08-30T02:38:24.891Z,51.00
2022-08-30T02:40:26.800Z,51.00
2022-08-30T02:42:28.634Z,51.10
2022-08-30T02:44:30.413Z,51.10
2022-08-30T02:46:33.381Z,51.00
2022-08-30T02:48:36.564Z,51.20
2022-08-30T02:50:45.973Z,51.10
2022-08-30T02:52:48.310Z,51.10
2022-08-30T02:54:50.314Z,51.30
2022-08-30T02:56:52.056Z,51.30
2022-08-30T02:58:53.731Z,51.30
2022-08-30T03:00:58.026Z,51.20
2022-08-30T03:03:00.295Z,51.30
2022-08-30T03:05:02.080Z,51.30
2022-08-30T03:07:03.869Z,51.30
2022-08-30T03:09:05.531Z,51.30
2022-08-30T03:11:07.434Z,51.20
2022-08-30T03:13:09.170Z,51.20
2022-08-30T03:15:15.780Z,51.20
2022-08-30T03:17:17.718Z,51.20
2022-08-30T03:19:19.763Z,51.30
2022-08-30T03:21:21.467Z,51.30
2022-08-30T03:23:23.841Z,51.30
2022-08-30T03:25:25.700Z,51.30
2022-08-30T03:27:28.029Z,52.00
2022-08-30T03:29:29.794Z,51.30
2022-08-30T03:31:31.493Z,51.20
2022-08-30T03:33:40.472Z,51.40
2022-08-30T03:35:42.188Z,51.40
2022-08-30T03:37:44.592Z,51.50
2022-08-30T03:39:46.348Z,51.40
2022-08-30T03:41:48.039Z,51.60
2022-08-30T03:43:49.904Z,51.60
2022-08-30T03:45:52.497Z,51.70
2022-08-30T03:47:54.253Z,51.60
2022-08-30T03:49:55.955Z,51.60
2022-08-30T03:51:57.610Z,51.70
2022-08-30T03:53:59.633Z,51.70
2022-08-30T03:56:01.591Z,51.80
2022-08-30T03:58:03.334Z,51.70
2022-08-30T04:00:06.891Z,52.00
2022-08-30T04:02:13.144Z,52.00
2022-08-30T04:04:20.038Z,51.80
2022-08-30T04:06:22.727Z,51.80
2022-08-30T04:08:25.463Z,51.80
2022-08-30T04:10:27.245Z,51.90
2022-08-30T04:12:28.904Z,52.00
2022-08-30T04:14:30.590Z,52.00
2022-08-30T04:16:32.313Z,52.10
2022-08-30T04:18:34.725Z,52.00
2022-08-30T04:20:36.468Z,52.20
2022-08-30T04:22:38.540Z,52.20
2022-08-30T04:24:41.578Z,52.10
2022-08-30T04:26:43.282Z,52.10
2022-08-30T04:28:44.926Z,52.20
2022-08-30T04:30:47.814Z,52.20
2022-08-30T04:32:49.569Z,52.20
2022-08-30T04:34:55.475Z,52.50
2022-08-30T04:36:57.133Z,52.30
2022-08-30T04:38:58.778Z,52.20
2022-08-30T04:41:00.449Z,52.20
2022-08-30T04:43:02.374Z,52.20
2022-08-30T04:45:07.510Z,52.40
2022-08-30T04:47:09.885Z,52.40
2022-08-30T04:49:11.529Z,52.50
2022-08-30T04:51:14.285Z,52.50
2022-08-30T04:53:16.187Z,52.40
2022-08-30T04:55:20.210Z,52.30
2022-08-30T04:57:22.761Z,52.40
2022-08-30T04:59:24.415Z,52.50
2022-08-30T05:01:27.874Z,52.50
2022-08-30T05:03:30.486Z,52.40
2022-08-30T05:05:41.720Z,52.40
2022-08-30T05:07:43.399Z,52.70
2022-08-30T05:09:45.062Z,52.60
2022-08-30T05:11:47.026Z,52.80
2022-08-30T05:13:49.723Z,52.70
2022-08-30T05:15:51.488Z,52.80
2022-08-30T05:17:55.851Z,52.70
2022-08-30T05:19:57.520Z,52.90
2022-08-30T05:21:59.564Z,52.80
2022-08-30T05:24:01.289Z,53.00
2022-08-30T05:26:07.439Z,52.90
2022-08-30T05:28:09.678Z,53.00
2022-08-30T05:30:12.561Z,52.90
2022-08-30T05:32:14.254Z,53.00
2022-08-30T05:34:16.456Z,53.00
2022-08-30T05:36:18.865Z,53.00
2022-08-30T05:38:20.564Z,53.20
2022-08-30T05:40:23.980Z,53.10
2022-08-30T05:42:26.527Z,53.10
2022-08-30T05:44:28.173Z,53.10
2022-08-30T05:48:40.334Z,53.30
2022-08-30T05:50:42.173Z,53.60
2022-08-30T05:52:45.059Z,53.40
2022-08-30T05:54:51.993Z,54.20
2022-08-30T05:56:53.684Z,53.50
2022-08-30T05:58:55.362Z,53.50
2022-08-30T06:00:57.099Z,53.50
2022-08-30T06:02:59.214Z,53.50
2022-08-30T06:05:02.347Z,53.50
2022-08-30T06:07:04.195Z,53.50
2022-08-30T06:09:06.710Z,53.50
2022-08-30T06:11:08.489Z,53.80
2022-08-30T06:13:10.317Z,53.70
2022-08-30T06:15:11.993Z,53.90
2022-08-30T06:17:13.657Z,54.10
2022-08-30T06:19:15.737Z,53.90
2022-08-30T06:21:20.488Z,54.00
2022-08-30T06:23:22.733Z,54.00
2022-08-30T06:25:24.399Z,53.90
2022-08-30T06:27:26.036Z,54.00
2022-08-30T06:29:27.955Z,54.10
2022-08-30T06:31:29.669Z,54.00
2022-08-30T06:33:31.421Z,54.00
2022-08-30T06:35:38.105Z,54.00
2022-08-30T06:37:44.006Z,54.00
2022-08-30T06:39:45.675Z,54.00
2022-08-30T06:41:47.487Z,54.20
2022-08-30T06:44:08.334Z,54.20
2022-08-30T06:46:11.569Z,54.10
2022-08-30T06:48:13.322Z,54.10
2022-08-30T06:50:15.781Z,54.10
2022-08-30T06:52:17.451Z,54.10
2022-08-30T06:54:21.106Z,54.70
2022-08-30T06:56:22.945Z,54.00
2022-08-30T06:58:24.808Z,54.00
2022-08-30T07:00:26.478Z,53.90
2022-08-30T07:02:28.226Z,53.90
2022-08-30T07:04:29.962Z,54.00
2022-08-30T07:06:32.292Z,53.90
2022-08-30T07:08:33.963Z,53.90
2022-08-30T07:10:38.129Z,53.90
2022-08-30T07:12:39.767Z,53.90
2022-08-30T07:14:42.420Z,53.90
2022-08-30T07:16:44.111Z,54.00
2022-08-30T07:18:51.720Z,53.90
2022-08-30T07:20:53.395Z,53.80
2022-08-30T07:22:55.066Z,54.00
2022-08-30T07:24:56.755Z,54.10
2022-08-30T07:26:58.439Z,54.10
2022-08-30T07:29:00.691Z,53.70
2022-08-30T07:31:02.439Z,53.50
2022-08-30T07:33:04.661Z,53.60
2022-08-30T07:35:06.494Z,53.60
2022-08-30T07:37:08.253Z,53.50
2022-08-30T07:39:10.045Z,53.60
2022-08-30T07:41:16.459Z,53.70
2022-08-30T07:43:18.444Z,53.30
2022-08-30T07:45:20.337Z,53.10
2022-08-30T07:47:22.036Z,52.90
2022-08-30T07:49:23.783Z,52.90
2022-08-30T07:51:26.330Z,52.90
2022-08-30T07:53:28.070Z,53.00
2022-08-30T07:55:29.736Z,52.80
2022-08-30T07:57:34.255Z,52.70
2022-08-30T07:59:36.329Z,52.60
2022-08-30T08:01:38.210Z,52.50
2022-08-30T08:03:40.686Z,52.60
2022-08-30T08:05:44.102Z,52.60
2022-08-30T08:07:45.762Z,52.50
2022-08-30T08:09:47.483Z,52.70
2022-08-30T08:11:49.218Z,52.60
2022-08-30T08:13:53.535Z,52.50
2022-08-30T08:15:56.203Z,52.50
2022-08-30T08:17:58.037Z,52.50
2022-08-30T08:19:59.771Z,52.40
2022-08-30T08:22:20.069Z,52.40
2022-08-30T08:24:23.259Z,52.30
2022-08-30T08:26:25.044Z,52.50
2022-08-30T08:28:26.762Z,52.50
2022-08-30T08:30:28.425Z,52.40
2022-08-30T08:32:30.118Z,52.40
2022-08-30T08:34:31.853Z,52.30
2022-08-30T08:36:34.367Z,52.20
2022-08-30T08:38:36.974Z,52.10
2022-08-30T08:40:48.673Z,52.10
2022-08-30T08:43:05.765Z,52.00
2022-08-30T08:45:14.512Z,52.10
2022-08-30T08:47:18.044Z,52.00
2022-08-30T08:49:20.011Z,52.00
2022-08-30T08:51:42.271Z,52.00
2022-08-30T08:53:47.110Z,52.00
2022-08-30T08:55:50.479Z,51.80
2022-08-30T08:57:52.515Z,51.90
2022-08-30T08:59:55.035Z,51.70
2022-08-30T09:02:01.759Z,51.70
2022-08-30T09:04:05.941Z,51.70
2022-08-30T09:06:23.395Z,51.30
2022-08-30T09:08:25.361Z,51.30
2022-08-30T09:10:47.009Z,51.60
2022-08-30T09:12:49.514Z,51.30
2022-08-30T09:14:54.416Z,51.50
2022-08-30T09:17:07.891Z,51.40
2022-08-30T09:19:09.977Z,51.30
2022-08-30T09:21:11.946Z,51.20
2022-08-30T09:23:13.624Z,51.20
2022-08-30T09:25:22.320Z,51.10
2022-08-30T09:27:44.859Z,51.10
2022-08-30T09:29:50.492Z,51.10
2022-08-30T09:32:22.563Z,50.80
2022-08-30T09:34:22.026Z,50.80
2022-08-30T09:36:27.425Z,50.90
2022-08-30T09:38:32.619Z,50.50
2022-08-30T09:40:45.140Z,50.60
2022-08-30T09:43:00.738Z,50.80
2022-08-30T09:45:12.337Z,50.50
2022-08-30T09:47:24.053Z,50.50
2022-08-30T09:49:30.086Z,50.50
2022-08-30T09:51:38.627Z,50.50
2022-08-30T09:56:20.811Z,50.90
2022-08-30T09:58:29.900Z,50.50
2022-08-30T10:00:35.229Z,50.40
2022-08-30T10:02:36.929Z,50.20
2022-08-30T10:04:38.571Z,50.10
2022-08-30T10:06:44.382Z,49.70
2022-08-30T10:08:46.517Z,49.60
2022-08-30T10:10:51.435Z,49.80
2022-08-30T10:12:59.394Z,49.20
2022-08-30T10:15:15.047Z,49.50
2022-08-30T10:17:16.723Z,50.40
2022-08-30T10:19:18.471Z,49.70
2022-08-30T10:21:29.281Z,49.80
2022-08-30T10:23:45.909Z,49.80
2022-08-30T10:25:53.513Z,49.70
2022-08-30T10:27:59.049Z,49.90
2022-08-30T10:30:02.647Z,49.70
2022-08-30T10:32:30.940Z,49.50
2022-08-30T10:34:35.816Z,49.80
2022-08-30T10:36:42.285Z,49.10
2022-08-30T10:38:47.992Z,49.40
2022-08-30T10:41:14.218Z,49.30
2022-08-30T10:43:31.789Z,49.20
2022-08-30T10:45:35.955Z,49.20
2022-08-30T10:47:41.913Z,48.90
2022-08-30T10:49:48.017Z,48.80
2022-08-30T10:51:49.928Z,49.50
2022-08-30T10:53:54.907Z,49.00
2022-08-30T10:56:08.480Z,49.10
2022-08-30T10:58:10.419Z,48.70
2022-08-30T11:00:32.557Z,48.90
2022-08-30T11:02:34.209Z,49.00
2022-08-30T11:04:35.942Z,48.90
2022-08-30T11:06:43.060Z,48.70
2022-08-30T11:09:05.586Z,48.80
2022-08-30T11:11:26.226Z,48.60
2022-08-30T11:13:29.808Z,48.50
2022-08-30T11:15:36.858Z,48.60
2022-08-30T11:17:43.984Z,48.90
2022-08-30T11:19:46.201Z,48.20
2022-08-30T11:21:50.938Z,47.80
2022-08-30T11:24:02.054Z,47.90
2022-08-30T11:26:16.881Z,47.80
2022-08-30T11:28:40.367Z,47.60
2022-08-30T11:30:55.340Z,47.70
2022-08-30T11:33:15.677Z,47.50
2022-08-30T11:35:37.204Z,47.60
2022-08-30T11:37:41.875Z,47.50
2022-08-30T11:39:47.476Z,47.00
2022-08-30T11:42:09.608Z,46.70
2022-08-30T11:44:27.691Z,46.80
2022-08-30T11:46:29.932Z,46.90
2022-08-30T11:48:40.057Z,46.90
2022-08-30T11:51:02.284Z,47.00
2022-08-30T11:53:23.268Z,47.10
2022-08-30T11:55:48.094Z,46.90
2022-08-30T11:58:11.922Z,46.70
2022-08-30T12:00:13.758Z,45.80
2022-08-30T12:02:35.007Z,46.00
2022-08-30T12:04:43.123Z,45.80
2022-08-30T12:06:54.355Z,45.40
2022-08-30T12:09:02.239Z,45.90
2022-08-30T12:11:08.908Z,45.90
2022-08-30T12:13:33.255Z,46.30
2022-08-30T12:15:58.498Z,46.10
2022-08-30T12:18:25.852Z,46.30
2022-08-30T12:20:30.494Z,46.30
2022-08-30T12:22:53.688Z,46.40
2022-08-30T12:25:04.726Z,46.50
2022-08-30T12:27:27.939Z,46.80
2022-08-30T12:29:37.799Z,46.20
2022-08-30T12:31:41.692Z,46.00
2022-08-30T12:33:45.802Z,46.00
2022-08-30T12:35:47.585Z,45.80
2022-08-30T12:37:58.804Z,46.00
2022-08-30T12:40:09.726Z,45.60
2022-08-30T12:42:20.751Z,45.60
2022-08-30T12:44:27.478Z,45.60
2022-08-30T12:46:30.175Z,45.50
2022-08-30T12:48:39.706Z,45.90
2022-08-30T12:50:51.668Z,45.20
2022-08-30T12:52:58.533Z,44.70
2022-08-30T12:55:26.837Z,45.70
2022-08-30T12:57:39.730Z,45.30
2022-08-30T12:59:41.464Z,45.40
2022-08-30T13:01:44.155Z,43.50
2022-08-30T13:04:10.125Z,44.40
2022-08-30T13:06:11.903Z,44.70
2022-08-30T13:08:15.539Z,44.80
2022-08-30T13:10:22.383Z,44.50
2022-08-30T13:12:27.348Z,44.50
2022-08-30T13:14:32.426Z,44.70
2022-08-30T13:16:45.057Z,44.40
2022-08-30T13:19:16.683Z,44.50
2022-08-30T13:21:21.436Z,44.60
2022-08-30T13:23:23.754Z,44.40
2022-08-30T13:25:26.143Z,44.70
2022-08-30T13:27:28.746Z,44.20
2022-08-30T13:29:31.894Z,43.60
2022-08-30T13:31:33.658Z,43.50
2022-08-30T13:33:36.098Z,42.50
2022-08-30T13:35:37.858Z,42.70
2022-08-30T13:37:50.574Z,42.60
2022-08-30T13:39:53.328Z,43.10
2022-08-30T13:41:56.127Z,43.10
2022-08-30T13:44:17.641Z,43.10
2022-08-30T13:46:20.456Z,43.10
2022-08-30T13:48:25.068Z,43.00
2022-08-30T13:50:26.878Z,43.10
2022-08-30T13:52:29.366Z,42.80
2022-08-30T13:54:31.736Z,42.90
2022-08-30T13:56:33.520Z,42.70
2022-08-30T13:58:36.257Z,43.20
2022-08-30T14:00:38.376Z,43.00
2022-08-30T14:02:45.409Z,42.80
2022-08-30T14:04:49.469Z,41.70
2022-08-30T14:07:21.108Z,42.30
2022-08-30T14:09:14.427Z,42.00
2022-08-30T14:11:18.957Z,41.50
2022-08-30T14:13:21.167Z,41.40
2022-08-30T14:15:23.823Z,41.30
2022-08-30T14:17:30.344Z,41.30
2022-08-30T14:19:32.156Z,41.30
2022-08-30T14:21:34.318Z,41.20
2022-08-30T14:23:35.964Z,40.90
2022-08-30T14:25:37.934Z,40.80
2022-08-30T14:27:42.650Z,40.90
2022-08-30T14:29:44.403Z,41.00
2022-08-30T14:31:48.583Z,41.30
2022-08-30T14:33:50.493Z,41.30
2022-08-30T14:35:52.216Z,41.30
2022-08-30T14:37:54.069Z,41.70
2022-08-30T14:39:55.734Z,41.70
2022-08-30T14:41:57.514Z,42.00
2022-08-30T14:43:59.188Z,42.10
2022-08-30T14:46:01.717Z,42.30
2022-08-30T14:48:15.085Z,42.40
2022-08-30T14:50:16.924Z,42.70
2022-08-30T14:52:20.987Z,42.70
2022-08-30T14:54:25.378Z,43.10
2022-08-30T14:56:27.370Z,43.00
2022-08-30T14:58:29.124Z,42.80
2022-08-30T15:00:30.906Z,43.00
2022-08-30T15:02:34.142Z,43.10
2022-08-30T15:04:35.875Z,42.90
2022-08-30T15:06:38.764Z,43.00
2022-08-30T15:08:41.715Z,43.40
2022-08-30T15:10:49.411Z,43.50
2022-08-30T15:12:55.419Z,43.50
2022-08-30T15:14:57.537Z,43.60
2022-08-30T15:16:59.363Z,43.60
2022-08-30T15:19:01.406Z,43.30
2022-08-30T15:21:03.111Z,43.50
2022-08-30T15:23:06.245Z,43.70
2022-08-30T15:25:08.515Z,43.50
2022-08-30T15:27:11.206Z,43.40
2022-08-30T15:29:15.259Z,43.20
2022-08-30T15:31:20.794Z,43.10
2022-08-30T15:33:24.684Z,42.80
2022-08-30T15:35:26.461Z,42.80
2022-08-30T15:37:31.243Z,42.70
2022-08-30T15:39:33.161Z,42.80
2022-08-30T15:41:35.991Z,42.80
2022-08-30T15:43:41.005Z,42.60
2022-08-30T15:45:42.901Z,42.00
2022-08-30T15:47:45.023Z,42.10
2022-08-30T15:49:48.869Z,42.10
2022-08-30T15:51:51.658Z,41.90
2022-08-30T15:53:56.083Z,41.60
2022-08-30T15:55:59.177Z,41.60
2022-08-30T15:58:00.963Z,41.10
2022-08-30T16:00:06.449Z,41.30
2022-08-30T16:02:10.229Z,41.10
2022-08-30T16:04:12.342Z,41.50
2022-08-30T16:06:15.529Z,41.30
2022-08-30T16:08:19.361Z,41.30
2022-08-30T16:10:21.313Z,40.90
2022-08-30T16:12:23.792Z,40.80
2022-08-30T16:14:25.844Z,40.50
2022-08-30T16:16:28.057Z,40.40
2022-08-30T16:18:29.926Z,40.60
2022-08-30T16:20:31.716Z,40.50
2022-08-30T16:22:33.557Z,40.70
2022-08-30T16:24:35.303Z,40.80
2022-08-30T16:26:37.341Z,41.20
2022-08-30T16:28:39.166Z,41.30
2022-08-30T16:30:40.853Z,41.40
2022-08-30T16:32:46.930Z,41.20
2022-08-30T16:34:49.795Z,41.40
2022-08-30T16:36:51.621Z,41.60
2022-08-30T16:38:57.879Z,41.50
2022-08-30T16:41:03.108Z,41.90
2022-08-30T16:43:06.418Z,41.90
2022-08-30T16:45:10.462Z,41.90
2022-08-30T16:47:13.535Z,42.00
2022-08-30T16:49:16.334Z,42.10
2022-08-30T16:51:20.882Z,42.10
2022-08-30T16:53:24.976Z,42.30
2022-08-30T16:55:27.478Z,43.00
2022-08-30T16:57:29.604Z,42.30
2022-08-30T16:59:31.664Z,42.20
2022-08-30T17:01:34.929Z,42.10
2022-08-30T17:03:37.750Z,42.30
2022-08-30T17:05:41.480Z,42.50
2022-08-30T17:07:44.816Z,42.40
2022-08-30T17:09:46.799Z,42.30
2022-08-30T17:11:48.736Z,42.30
2022-08-30T17:13:50.958Z,42.40
2022-08-30T17:15:52.848Z,42.50
2022-08-30T17:17:55.080Z,42.70
2022-08-30T17:19:57.388Z,42.80
2022-08-30T17:21:59.202Z,42.80
2022-08-30T17:24:02.817Z,42.70
2022-08-30T17:26:04.919Z,42.80
2022-08-30T17:28:08.458Z,43.00
2022-08-30T17:30:10.685Z,43.10
2022-08-30T17:32:12.370Z,43.30
2022-08-30T17:34:15.166Z,43.10
2022-08-30T17:36:16.925Z,43.20
2022-08-30T17:38:19.536Z,43.20
2022-08-30T17:40:21.783Z,43.30
2022-08-30T17:42:23.563Z,43.30
2022-08-30T17:44:32.594Z,43.40
2022-08-30T17:46:35.008Z,43.60
2022-08-30T17:48:36.831Z,43.60
2022-08-30T17:50:38.566Z,43.60
2022-08-30T17:52:40.389Z,43.50
2022-08-30T17:54:42.153Z,43.60
2022-08-30T17:56:44.500Z,43.70
2022-08-30T17:58:47.436Z,43.60
2022-08-30T18:00:50.303Z,43.70
2022-08-30T18:02:52.696Z,43.80
2022-08-30T18:04:57.817Z,43.80
2022-08-30T18:07:00.983Z,43.90
2022-08-30T18:09:04.124Z,44.00
2022-08-30T18:11:08.546Z,44.20
2022-08-30T18:13:10.404Z,44.30
2022-08-30T18:15:14.784Z,44.30
2022-08-30T18:17:17.800Z,44.40
2022-08-30T18:19:19.693Z,44.40
2022-08-30T18:21:22.046Z,44.30
2022-08-30T18:23:24.357Z,44.40
2022-08-30T18:25:26.189Z,44.40
2022-08-30T18:27:28.646Z,44.50
2022-08-30T18:29:31.580Z,44.30
2022-08-30T18:31:33.293Z,44.40
2022-08-30T18:33:35.047Z,44.70
2022-08-30T18:35:37.659Z,44.70
2022-08-30T18:37:39.577Z,44.70
2022-08-30T18:39:41.710Z,44.70
2022-08-30T18:41:43.546Z,44.80
2022-08-30T18:43:46.174Z,44.90
2022-08-30T18:45:50.665Z,44.90
2022-08-30T18:47:52.447Z,44.90
2022-08-30T18:49:54.391Z,45.00
2022-08-30T18:51:56.207Z,45.10
2022-08-30T18:53:57.970Z,45.10
2022-08-30T18:55:59.710Z,45.30
2022-08-30T18:58:02.523Z,45.40
2022-08-30T19:00:04.876Z,45.40
2022-08-30T19:02:07.563Z,45.40
2022-08-30T19:04:11.304Z,45.50
2022-08-30T19:06:24.422Z,45.50
2022-08-30T19:08:26.191Z,45.70
2022-08-30T19:10:28.478Z,45.60
2022-08-30T19:12:30.328Z,45.70
2022-08-30T19:14:32.170Z,45.70
2022-08-30T19:16:34.022Z,45.80
2022-08-30T19:18:36.968Z,46.00
2022-08-30T19:20:38.777Z,46.00
2022-08-30T19:23:08.598Z,46.10
2022-08-30T19:25:06.248Z,46.00
2022-08-30T19:27:08.169Z,46.00
2022-08-30T19:29:10.470Z,46.10
2022-08-30T19:31:12.532Z,46.00
2022-08-30T19:33:14.388Z,46.00
2022-08-30T19:35:17.885Z,46.20
2022-08-30T19:37:21.218Z,46.10
2022-08-30T19:39:23.022Z,46.10
2022-08-30T19:41:25.358Z,46.20
2022-08-30T19:43:28.060Z,46.20
2022-08-30T19:45:33.946Z,46.90
2022-08-30T19:47:36.253Z,46.20
2022-08-30T19:49:38.139Z,46.20
2022-08-30T19:51:46.855Z,46.30
2022-08-30T19:53:48.863Z,46.30
2022-08-30T19:55:51.071Z,46.30
2022-08-30T19:57:52.964Z,46.30
2022-08-30T19:59:55.708Z,46.30
2022-08-30T20:01:57.493Z,46.30
2022-08-30T20:04:01.860Z,46.40
2022-08-30T20:06:04.060Z,46.10
2022-08-30T20:08:06.758Z,46.10
2022-08-30T20:10:10.344Z,46.30
2022-08-30T20:12:12.240Z,46.40
2022-08-30T20:14:13.977Z,46.40
2022-08-30T20:16:16.860Z,46.40
2022-08-30T20:18:19.592Z,46.30
2022-08-30T20:20:22.823Z,46.90
2022-08-30T20:22:28.190Z,46.40
2022-08-30T20:24:30.022Z,46.30
2022-08-30T20:26:34.230Z,46.50
2022-08-30T20:28:37.251Z,46.30
2022-08-30T20:30:39.173Z,46.30
2022-08-30T20:32:44.770Z,46.30
2022-08-30T20:34:46.625Z,46.10
2022-08-30T20:36:51.769Z,46.10
2022-08-30T20:38:56.026Z,46.00
2022-08-30T20:40:58.936Z,46.10
2022-08-30T20:43:01.106Z,46.10
2022-08-30T20:45:06.264Z,46.10
2022-08-30T20:47:08.099Z,46.00
2022-08-30T20:49:10.361Z,46.10
2022-08-30T20:51:15.148Z,45.80
2022-08-30T20:53:16.839Z,45.90
2022-08-30T20:55:18.641Z,45.80
2022-08-30T20:57:24.268Z,45.70
2022-08-30T20:59:27.934Z,45.70
2022-08-30T21:01:31.758Z,45.90
2022-08-30T21:03:33.561Z,46.00
2022-08-30T21:05:35.306Z,46.00
2022-08-30T21:07:37.009Z,45.90
2022-08-30T21:09:38.749Z,46.00
2022-08-30T21:11:44.513Z,45.90
2022-08-30T21:13:48.339Z,45.90
2022-08-30T21:15:54.693Z,45.90
2022-08-30T21:17:56.726Z,45.70
2022-08-30T21:19:58.591Z,45.80
2022-08-30T21:22:01.607Z,45.70
2022-08-30T21:24:06.670Z,45.80
2022-08-30T21:26:09.482Z,45.70
2022-08-30T21:28:11.254Z,45.70
2022-08-30T21:30:13.801Z,45.50
2022-08-30T21:32:15.701Z,45.60
2022-08-30T21:34:17.778Z,45.70
2022-08-30T21:36:39.101Z,45.70
2022-08-30T21:38:40.772Z,45.60
2022-08-30T21:40:42.965Z,45.50
2022-08-30T21:42:45.920Z,45.70
2022-08-30T21:44:47.583Z,45.80
2022-08-30T21:46:49.771Z,45.90
2022-08-30T21:48:51.855Z,45.80
2022-08-30T21:50:55.193Z,45.70
2022-08-30T21:52:56.906Z,45.60
2022-08-30T21:55:00.088Z,45.80
2022-08-30T21:57:04.825Z,45.70
2022-08-30T21:59:07.090Z,45.70
2022-08-30T22:01:12.964Z,45.80
2022-08-30T22:03:14.922Z,45.80
2022-08-30T22:05:16.755Z,45.80
2022-08-30T22:07:18.450Z,45.80
2022-08-30T22:09:24.507Z,45.80
2022-08-30T22:11:36.632Z,45.90
2022-08-30T22:13:43.017Z,45.80
2022-08-30T22:15:46.110Z,45.80
2022-08-30T22:17:47.864Z,45.70
2022-08-30T22:19:49.536Z,45.60
2022-08-30T22:21:51.444Z,45.60
2022-08-30T22:23:53.331Z,45.80
2022-08-30T22:25:55.004Z,45.70
2022-08-30T22:27:56.838Z,45.70
2022-08-30T22:29:58.614Z,45.80
2022-08-30T22:32:00.560Z,45.70
2022-08-30T22:34:02.563Z,45.70
2022-08-30T22:36:05.440Z,45.70
2022-08-30T22:38:07.303Z,46.00
2022-08-30T22:40:09.660Z,46.00
2022-08-30T22:42:11.487Z,46.10
2022-08-30T22:44:13.318Z,46.10
2022-08-30T22:46:16.202Z,45.90
2022-08-30T22:48:17.940Z,45.90
2022-08-30T22:50:19.893Z,46.00
2022-08-30T22:52:25.500Z,46.00
2022-08-30T22:54:27.410Z,46.00
2022-08-30T22:56:29.224Z,46.10
2022-08-30T22:58:30.968Z,46.10
2022-08-30T23:00:32.829Z,46.00
2022-08-30T23:02:34.989Z,46.10
2022-08-30T23:04:37.293Z,46.10
2022-08-30T23:06:39.244Z,46.20
2022-08-30T23:08:40.919Z,46.30
2022-08-30T23:10:44.346Z,46.20
2022-08-30T23:12:46.052Z,46.30
2022-08-30T23:14:47.749Z,46.20
2022-08-30T23:16:49.468Z,46.30
2022-08-30T23:18:51.186Z,46.40
2022-08-30T23:20:52.827Z,46.40
2022-08-30T23:23:00.165Z,46.40
2022-08-30T23:25:20.496Z,46.50
2022-08-30T23:27:41.408Z,46.60
2022-08-30T23:30:01.659Z,46.70
2022-08-30T23:32:22.566Z,46.80
2022-08-30T23:34:42.715Z,46.60
2022-08-30T23:37:03.199Z,46.80
2022-08-30T23:39:23.089Z,46.80
2022-08-30T23:41:43.175Z,46.70
2022-08-30T23:44:03.418Z,46.80
2022-08-30T23:46:23.837Z,47.10
2022-08-30T23:48:50.031Z,47.10
2022-08-30T23:51:12.690Z,47.00
2022-08-30T23:53:43.804Z,47.00
2022-08-30T23:56:04.208Z,47.00
2022-08-30T23:58:24.887Z,47.10
